Decoded Metar for K2V6 ( in ) (IATA:) | Meteo·Mobile Aviation Weather
aviador You're here:

K2V6 Decoded Metar

in
Report Time2019-01-20 11:34:00
UTC Time2019-01-20 12:01:06
Flight Rules vfr VFR
Wind250° at 08 kt
W.Rank250° ranks 15
Current wind is above 250° avg. (6.7)
Visibility9999 m
Phenomena:N/A
Clouds:N/A
Expected CloudBase > 1,600 ft AGL from Temp-Dew spread
CeilingNone
Temp-2°C
Dew Point-6°C (74% RH)
AAT-7.6°C
QNH1017 hPa
Raw Report
K2V6 201134Z AUTO 25008KT 10SM CLR M02/M06 A3003 RMK AO2=

Extra information for K2V6:More info

Social comments